Annandale, New Jersey
Current Conditions -  °F | °C
As of 6:04 AM on Thursday 23 Oct 2014 (Local Time) from KSMQ Reporting Station
Light Rain Light Rain  
Wind Chill: 52°   Ceiling: 3600
Heat Index: 52°   Visibility: 9mi
Dew Point: 47°   Wind: 6mph
Humidity: 83%   Direction: 330°NNW
Pressure: 29.73"   Gusts: NA
Location:  40.65°N, 74.89°W
Report Text: KSMQ 231004Z AUTO 33005KT 9SM -RA FEW026 OVC036 11/08 A2973 RMK AO2 P0000 T01110083
Loading
Personal Weather Stations






























Interactive Weather Map New forecast layout! Learn more

10-Day Weather Forecast

Advertisements
Track Severe Weather on mobile